sensor_id;sensor_type;location;lat;lon;timestamp;P1;durP1;ratioP1;P2;durP2;ratioP2
75035;SDS011;64247;51.540;5.854;2023-07-31T00:01:28;16.70;;;5.78;;
75035;SDS011;64247;51.540;5.854;2023-07-31T00:03:28;11.95;;;5.97;;
75035;SDS011;64247;51.540;5.854;2023-07-31T00:05:29;15.10;;;5.88;;
75035;SDS011;64247;51.540;5.854;2023-07-31T00:07:30;11.38;;;5.25;;
75035;SDS011;64247;51.540;5.854;2023-07-31T00:09:32;9.82;;;5.05;;
75035;SDS011;64247;51.540;5.854;2023-07-31T00:11:33;15.32;;;7.10;;
75035;SDS011;64247;51.540;5.854;2023-07-31T00:13:34;11.27;;;4.65;;
75035;SDS011;64247;51.540;5.854;2023-07-31T00:15:35;11.40;;;4.13;;
75035;SDS011;64247;51.540;5.854;2023-07-31T00:17:36;17.08;;;5.57;;
75035;SDS011;64247;51.540;5.854;2023-07-31T00:19:37;11.25;;;5.45;;
75035;SDS011;64247;51.540;5.854;2023-07-31T00:21:38;8.73;;;3.85;;
75035;SDS011;64247;51.540;5.854;2023-07-31T00:23:38;10.55;;;5.00;;
75035;SDS011;64247;51.540;5.854;2023-07-31T00:25:39;11.40;;;4.88;;
75035;SDS011;64247;51.540;5.854;2023-07-31T00:27:40;8.05;;;3.83;;
75035;SDS011;64247;51.540;5.854;2023-07-31T00:29:45;16.00;;;5.38;;
75035;SDS011;64247;51.540;5.854;2023-07-31T00:31:46;11.90;;;5.38;;
75035;SDS011;64247;51.540;5.854;2023-07-31T00:33:47;8.25;;;4.38;;
75035;SDS011;64247;51.540;5.854;2023-07-31T00:35:48;10.40;;;4.22;;
75035;SDS011;64247;51.540;5.854;2023-07-31T00:37:49;12.48;;;4.93;;
75035;SDS011;64247;51.540;5.854;2023-07-31T00:39:49;9.80;;;4.63;;
75035;SDS011;64247;51.540;5.854;2023-07-31T00:41:50;8.93;;;3.95;;
75035;SDS011;64247;51.540;5.854;2023-07-31T00:43:51;8.13;;;3.63;;
75035;SDS011;64247;51.540;5.854;2023-07-31T00:45:52;12.48;;;4.65;;
75035;SDS011;64247;51.540;5.854;2023-07-31T00:47:53;7.40;;;3.88;;
75035;SDS011;64247;51.540;5.854;2023-07-31T00:49:54;10.98;;;4.15;;
75035;SDS011;64247;51.540;5.854;2023-07-31T00:51:55;12.32;;;5.00;;
75035;SDS011;64247;51.540;5.854;2023-07-31T00:53:59;12.23;;;5.13;;
75035;SDS011;64247;51.540;5.854;2023-07-31T00:56:01;13.73;;;4.43;;
75035;SDS011;64247;51.540;5.854;2023-07-31T00:58:02;13.90;;;3.67;;
75035;SDS011;64247;51.540;5.854;2023-07-31T01:00:02;12.63;;;3.80;;
75035;SDS011;64247;51.540;5.854;2023-07-31T01:02:04;11.13;;;5.18;;
75035;SDS011;64247;51.540;5.854;2023-07-31T01:04:05;15.35;;;5.15;;
75035;SDS011;64247;51.540;5.854;2023-07-31T01:08:54;11.13;;;4.55;;
75035;SDS011;64247;51.540;5.854;2023-07-31T01:11:17;9.00;;;3.78;;
75035;SDS011;64247;51.540;5.854;2023-07-31T01:13:22;9.13;;;3.60;;
75035;SDS011;64247;51.540;5.854;2023-07-31T01:15:23;8.98;;;4.00;;
75035;SDS011;64247;51.540;5.854;2023-07-31T01:17:24;8.05;;;4.25;;
75035;SDS011;64247;51.540;5.854;2023-07-31T01:19:25;8.73;;;4.28;;
75035;SDS011;64247;51.540;5.854;2023-07-31T01:26:56;14.70;;;4.68;;
75035;SDS011;64247;51.540;5.854;2023-07-31T01:29:03;8.48;;;3.40;;
75035;SDS011;64247;51.540;5.854;2023-07-31T01:31:27;9.02;;;3.88;;
75035;SDS011;64247;51.540;5.854;2023-07-31T01:33:30;6.88;;;2.97;;
75035;SDS011;64247;51.540;5.854;2023-07-31T01:35:31;10.80;;;4.70;;
75035;SDS011;64247;51.540;5.854;2023-07-31T01:37:31;7.78;;;3.30;;
75035;SDS011;64247;51.540;5.854;2023-07-31T01:39:32;5.05;;;3.03;;
75035;SDS011;64247;51.540;5.854;2023-07-31T01:41:33;5.82;;;2.95;;
75035;SDS011;64247;51.540;5.854;2023-07-31T01:43:34;7.53;;;2.90;;
75035;SDS011;64247;51.540;5.854;2023-07-31T01:45:34;8.00;;;3.40;;
75035;SDS011;64247;51.540;5.854;2023-07-31T01:47:35;7.05;;;2.92;;
75035;SDS011;64247;51.540;5.854;2023-07-31T01:49:36;7.40;;;2.70;;
75035;SDS011;64247;51.540;5.854;2023-07-31T01:51:37;9.00;;;3.05;;
75035;SDS011;64247;51.540;5.854;2023-07-31T01:53:37;9.55;;;3.70;;
75035;SDS011;64247;51.540;5.854;2023-07-31T01:55:39;9.45;;;3.10;;
75035;SDS011;64247;51.540;5.854;2023-07-31T01:57:41;8.30;;;3.05;;
75035;SDS011;64247;51.540;5.854;2023-07-31T01:59:42;11.20;;;4.22;;
75035;SDS011;64247;51.540;5.854;2023-07-31T02:01:43;6.47;;;3.63;;
75035;SDS011;64247;51.540;5.854;2023-07-31T02:03:44;8.48;;;3.42;;
75035;SDS011;64247;51.540;5.854;2023-07-31T02:05:45;8.27;;;2.95;;
75035;SDS011;64247;51.540;5.854;2023-07-31T02:07:49;7.97;;;3.75;;
75035;SDS011;64247;51.540;5.854;2023-07-31T02:09:50;12.77;;;4.00;;
75035;SDS011;64247;51.540;5.854;2023-07-31T02:11:51;5.10;;;2.25;;
75035;SDS011;64247;51.540;5.854;2023-07-31T02:13:52;7.97;;;2.80;;
75035;SDS011;64247;51.540;5.854;2023-07-31T02:15:52;8.15;;;3.30;;
75035;SDS011;64247;51.540;5.854;2023-07-31T02:17:54;13.00;;;3.90;;
75035;SDS011;64247;51.540;5.854;2023-07-31T02:19:54;10.52;;;4.43;;
75035;SDS011;64247;51.540;5.854;2023-07-31T02:21:55;9.10;;;3.85;;
75035;SDS011;64247;51.540;5.854;2023-07-31T02:23:56;12.02;;;5.13;;
75035;SDS011;64247;51.540;5.854;2023-07-31T02:25:57;8.80;;;3.97;;
75035;SDS011;64247;51.540;5.854;2023-07-31T02:27:58;8.13;;;2.38;;
75035;SDS011;64247;51.540;5.854;2023-07-31T02:29:59;8.85;;;4.15;;
75035;SDS011;64247;51.540;5.854;2023-07-31T02:32:00;11.38;;;4.60;;
75035;SDS011;64247;51.540;5.854;2023-07-31T02:34:01;10.20;;;3.78;;
75035;SDS011;64247;51.540;5.854;2023-07-31T02:36:02;13.15;;;4.38;;
75035;SDS011;64247;51.540;5.854;2023-07-31T02:38:03;8.18;;;3.33;;
75035;SDS011;64247;51.540;5.854;2023-07-31T02:40:04;10.65;;;3.63;;
75035;SDS011;64247;51.540;5.854;2023-07-31T02:42:05;12.57;;;4.22;;
75035;SDS011;64247;51.540;5.854;2023-07-31T02:44:06;9.32;;;3.15;;
75035;SDS011;64247;51.540;5.854;2023-07-31T02:46:07;10.88;;;4.60;;
75035;SDS011;64247;51.540;5.854;2023-07-31T02:48:07;10.68;;;4.47;;
75035;SDS011;64247;51.540;5.854;2023-07-31T02:50:08;9.88;;;3.67;;
75035;SDS011;64247;51.540;5.854;2023-07-31T02:52:09;8.73;;;3.95;;
75035;SDS011;64247;51.540;5.854;2023-07-31T02:54:10;8.35;;;3.97;;
75035;SDS011;64247;51.540;5.854;2023-07-31T02:56:11;9.98;;;3.55;;
75035;SDS011;64247;51.540;5.854;2023-07-31T02:58:12;9.90;;;4.07;;
75035;SDS011;64247;51.540;5.854;2023-07-31T03:00:12;11.57;;;4.10;;
75035;SDS011;64247;51.540;5.854;2023-07-31T03:02:13;14.68;;;4.40;;
75035;SDS011;64247;51.540;5.854;2023-07-31T03:04:14;7.95;;;3.28;;
75035;SDS011;64247;51.540;5.854;2023-07-31T03:06:15;8.18;;;3.88;;
75035;SDS011;64247;51.540;5.854;2023-07-31T03:08:16;8.93;;;3.60;;
75035;SDS011;64247;51.540;5.854;2023-07-31T03:10:17;7.53;;;2.80;;
75035;SDS011;64247;51.540;5.854;2023-07-31T03:12:18;14.30;;;4.22;;
75035;SDS011;64247;51.540;5.854;2023-07-31T03:14:19;12.63;;;3.83;;
75035;SDS011;64247;51.540;5.854;2023-07-31T03:16:20;12.15;;;3.53;;
75035;SDS011;64247;51.540;5.854;2023-07-31T03:18:21;10.55;;;4.10;;
75035;SDS011;64247;51.540;5.854;2023-07-31T03:20:22;12.93;;;4.47;;
75035;SDS011;64247;51.540;5.854;2023-07-31T03:22:24;7.43;;;3.75;;
75035;SDS011;64247;51.540;5.854;2023-07-31T03:24:25;12.10;;;5.88;;
75035;SDS011;64247;51.540;5.854;2023-07-31T03:26:26;9.25;;;3.88;;
75035;SDS011;64247;51.540;5.854;2023-07-31T03:28:27;7.97;;;4.22;;
75035;SDS011;64247;51.540;5.854;2023-07-31T03:30:28;9.32;;;3.22;;
75035;SDS011;64247;51.540;5.854;2023-07-31T03:32:29;10.65;;;5.45;;
75035;SDS011;64247;51.540;5.854;2023-07-31T03:34:30;14.30;;;5.50;;
75035;SDS011;64247;51.540;5.854;2023-07-31T03:36:32;9.73;;;4.53;;
75035;SDS011;64247;51.540;5.854;2023-07-31T03:38:33;8.30;;;4.40;;
75035;SDS011;64247;51.540;5.854;2023-07-31T03:40:35;9.30;;;3.58;;
75035;SDS011;64247;51.540;5.854;2023-07-31T03:42:35;7.65;;;2.90;;
75035;SDS011;64247;51.540;5.854;2023-07-31T03:44:36;12.00;;;4.43;;
75035;SDS011;64247;51.540;5.854;2023-07-31T03:46:39;10.10;;;3.72;;
75035;SDS011;64247;51.540;5.854;2023-07-31T03:48:40;12.63;;;4.78;;
75035;SDS011;64247;51.540;5.854;2023-07-31T03:50:41;10.18;;;3.65;;
75035;SDS011;64247;51.540;5.854;2023-07-31T03:52:42;11.68;;;4.97;;
75035;SDS011;64247;51.540;5.854;2023-07-31T03:54:42;12.18;;;3.90;;
75035;SDS011;64247;51.540;5.854;2023-07-31T03:56:44;10.25;;;4.70;;
75035;SDS011;64247;51.540;5.854;2023-07-31T03:58:45;11.40;;;4.32;;
75035;SDS011;64247;51.540;5.854;2023-07-31T04:00:46;10.95;;;3.70;;
75035;SDS011;64247;51.540;5.854;2023-07-31T04:02:47;6.88;;;2.75;;
75035;SDS011;64247;51.540;5.854;2023-07-31T04:04:48;8.88;;;3.35;;
75035;SDS011;64247;51.540;5.854;2023-07-31T04:06:49;9.25;;;3.25;;
75035;SDS011;64247;51.540;5.854;2023-07-31T04:08:49;12.48;;;4.10;;
75035;SDS011;64247;51.540;5.854;2023-07-31T04:10:50;12.30;;;4.45;;
75035;SDS011;64247;51.540;5.854;2023-07-31T04:12:51;10.48;;;4.50;;
75035;SDS011;64247;51.540;5.854;2023-07-31T04:14:52;13.80;;;4.78;;
75035;SDS011;64247;51.540;5.854;2023-07-31T04:16:52;14.27;;;4.65;;
75035;SDS011;64247;51.540;5.854;2023-07-31T04:18:53;12.30;;;3.72;;
75035;SDS011;64247;51.540;5.854;2023-07-31T04:20:54;15.18;;;4.60;;
75035;SDS011;64247;51.540;5.854;2023-07-31T04:22:55;10.75;;;4.72;;
75035;SDS011;64247;51.540;5.854;2023-07-31T04:24:56;9.20;;;4.18;;
75035;SDS011;64247;51.540;5.854;2023-07-31T04:26:56;9.88;;;5.38;;
75035;SDS011;64247;51.540;5.854;2023-07-31T04:28:57;11.95;;;4.07;;
75035;SDS011;64247;51.540;5.854;2023-07-31T04:30:58;10.30;;;3.67;;
75035;SDS011;64247;51.540;5.854;2023-07-31T04:32:59;12.23;;;4.07;;
75035;SDS011;64247;51.540;5.854;2023-07-31T04:34:59;9.77;;;4.55;;
75035;SDS011;64247;51.540;5.854;2023-07-31T04:37:00;14.45;;;4.63;;
75035;SDS011;64247;51.540;5.854;2023-07-31T04:39:01;11.55;;;4.03;;
75035;SDS011;64247;51.540;5.854;2023-07-31T04:41:02;10.65;;;4.72;;
75035;SDS011;64247;51.540;5.854;2023-07-31T04:43:04;10.05;;;4.85;;
75035;SDS011;64247;51.540;5.854;2023-07-31T04:45:05;13.40;;;4.80;;
75035;SDS011;64247;51.540;5.854;2023-07-31T04:47:06;9.55;;;4.80;;
75035;SDS011;64247;51.540;5.854;2023-07-31T04:49:07;9.80;;;3.85;;
75035;SDS011;64247;51.540;5.854;2023-07-31T04:51:07;12.77;;;4.38;;
75035;SDS011;64247;51.540;5.854;2023-07-31T04:53:09;11.05;;;4.90;;
75035;SDS011;64247;51.540;5.854;2023-07-31T04:55:10;7.63;;;4.15;;
75035;SDS011;64247;51.540;5.854;2023-07-31T04:57:10;12.50;;;4.22;;
75035;SDS011;64247;51.540;5.854;2023-07-31T04:59:11;7.10;;;3.55;;
75035;SDS011;64247;51.540;5.854;2023-07-31T05:01:12;12.77;;;4.45;;
75035;SDS011;64247;51.540;5.854;2023-07-31T05:03:13;11.50;;;3.53;;
75035;SDS011;64247;51.540;5.854;2023-07-31T05:05:13;6.25;;;3.95;;
75035;SDS011;64247;51.540;5.854;2023-07-31T05:07:15;10.38;;;4.47;;
75035;SDS011;64247;51.540;5.854;2023-07-31T05:09:17;6.57;;;3.80;;
75035;SDS011;64247;51.540;5.854;2023-07-31T05:11:18;8.38;;;3.97;;
75035;SDS011;64247;51.540;5.854;2023-07-31T05:13:19;11.20;;;5.15;;
75035;SDS011;64247;51.540;5.854;2023-07-31T05:15:20;6.68;;;3.40;;
75035;SDS011;64247;51.540;5.854;2023-07-31T05:17:20;8.55;;;4.90;;
75035;SDS011;64247;51.540;5.854;2023-07-31T05:19:21;8.93;;;4.75;;
75035;SDS011;64247;51.540;5.854;2023-07-31T05:21:22;6.70;;;4.35;;
75035;SDS011;64247;51.540;5.854;2023-07-31T05:23:23;11.93;;;4.25;;
75035;SDS011;64247;51.540;5.854;2023-07-31T05:25:24;12.05;;;4.38;;
75035;SDS011;64247;51.540;5.854;2023-07-31T05:27:24;8.13;;;4.85;;
75035;SDS011;64247;51.540;5.854;2023-07-31T05:29:25;12.35;;;4.55;;
75035;SDS011;64247;51.540;5.854;2023-07-31T05:31:26;10.85;;;4.53;;
75035;SDS011;64247;51.540;5.854;2023-07-31T05:33:26;9.80;;;4.45;;
75035;SDS011;64247;51.540;5.854;2023-07-31T05:35:27;6.95;;;4.35;;
75035;SDS011;64247;51.540;5.854;2023-07-31T05:37:28;5.68;;;3.78;;
75035;SDS011;64247;51.540;5.854;2023-07-31T05:39:29;7.82;;;3.63;;
75035;SDS011;64247;51.540;5.854;2023-07-31T05:41:30;7.95;;;4.13;;
75035;SDS011;64247;51.540;5.854;2023-07-31T05:43:31;7.20;;;3.97;;
75035;SDS011;64247;51.540;5.854;2023-07-31T05:45:31;8.95;;;4.55;;
75035;SDS011;64247;51.540;5.854;2023-07-31T05:47:32;5.40;;;3.42;;
75035;SDS011;64247;51.540;5.854;2023-07-31T05:49:33;7.75;;;4.20;;
75035;SDS011;64247;51.540;5.854;2023-07-31T05:51:34;4.20;;;2.25;;
75035;SDS011;64247;51.540;5.854;2023-07-31T05:53:35;7.53;;;4.15;;
75035;SDS011;64247;51.540;5.854;2023-07-31T05:55:40;4.82;;;3.35;;
75035;SDS011;64247;51.540;5.854;2023-07-31T05:57:41;7.18;;;3.95;;
75035;SDS011;64247;51.540;5.854;2023-07-31T05:59:42;5.53;;;3.72;;
75035;SDS011;64247;51.540;5.854;2023-07-31T06:01:43;7.93;;;4.72;;
75035;SDS011;64247;51.540;5.854;2023-07-31T06:03:43;5.53;;;3.45;;
75035;SDS011;64247;51.540;5.854;2023-07-31T06:05:45;9.38;;;4.30;;
75035;SDS011;64247;51.540;5.854;2023-07-31T06:07:45;8.45;;;4.82;;
75035;SDS011;64247;51.540;5.854;2023-07-31T06:09:46;7.65;;;4.38;;
75035;SDS011;64247;51.540;5.854;2023-07-31T06:11:47;10.02;;;4.38;;
75035;SDS011;64247;51.540;5.854;2023-07-31T06:13:48;6.97;;;4.32;;
75035;SDS011;64247;51.540;5.854;2023-07-31T06:15:50;10.35;;;4.68;;
75035;SDS011;64247;51.540;5.854;2023-07-31T06:17:51;10.73;;;5.13;;
75035;SDS011;64247;51.540;5.854;2023-07-31T06:19:51;12.73;;;5.28;;
75035;SDS011;64247;51.540;5.854;2023-07-31T06:21:52;9.50;;;4.93;;
75035;SDS011;64247;51.540;5.854;2023-07-31T06:23:53;6.80;;;4.25;;
75035;SDS011;64247;51.540;5.854;2023-07-31T06:25:54;8.43;;;5.38;;
75035;SDS011;64247;51.540;5.854;2023-07-31T06:27:54;7.53;;;4.20;;
75035;SDS011;64247;51.540;5.854;2023-07-31T06:29:55;6.45;;;4.40;;
75035;SDS011;64247;51.540;5.854;2023-07-31T06:31:56;5.35;;;3.85;;
75035;SDS011;64247;51.540;5.854;2023-07-31T06:33:57;8.90;;;3.92;;
75035;SDS011;64247;51.540;5.854;2023-07-31T06:35:57;9.32;;;4.90;;
75035;SDS011;64247;51.540;5.854;2023-07-31T06:37:58;7.88;;;4.85;;
75035;SDS011;64247;51.540;5.854;2023-07-31T06:39:59;5.85;;;3.75;;
75035;SDS011;64247;51.540;5.854;2023-07-31T06:42:00;7.20;;;5.43;;
75035;SDS011;64247;51.540;5.854;2023-07-31T06:44:01;4.30;;;3.90;;
75035;SDS011;64247;51.540;5.854;2023-07-31T06:46:05;9.40;;;5.00;;
75035;SDS011;64247;51.540;5.854;2023-07-31T06:48:07;7.82;;;4.45;;
75035;SDS011;64247;51.540;5.854;2023-07-31T06:50:08;8.07;;;5.25;;
75035;SDS011;64247;51.540;5.854;2023-07-31T06:52:09;4.53;;;3.33;;
75035;SDS011;64247;51.540;5.854;2023-07-31T06:54:11;6.20;;;4.25;;
75035;SDS011;64247;51.540;5.854;2023-07-31T06:56:12;8.00;;;4.57;;
75035;SDS011;64247;51.540;5.854;2023-07-31T06:58:13;8.73;;;5.32;;
75035;SDS011;64247;51.540;5.854;2023-07-31T07:00:14;5.05;;;3.92;;
75035;SDS011;64247;51.540;5.854;2023-07-31T07:02:15;6.18;;;3.85;;
75035;SDS011;64247;51.540;5.854;2023-07-31T07:04:16;7.63;;;4.10;;
75035;SDS011;64247;51.540;5.854;2023-07-31T07:06:17;6.13;;;3.85;;
75035;SDS011;64247;51.540;5.854;2023-07-31T07:08:18;9.68;;;4.93;;
75035;SDS011;64247;51.540;5.854;2023-07-31T07:10:19;6.05;;;3.83;;
75035;SDS011;64247;51.540;5.854;2023-07-31T07:12:20;7.07;;;4.30;;
75035;SDS011;64247;51.540;5.854;2023-07-31T07:14:20;5.00;;;4.32;;
75035;SDS011;64247;51.540;5.854;2023-07-31T07:16:22;6.70;;;4.20;;
75035;SDS011;64247;51.540;5.854;2023-07-31T07:18:22;5.28;;;3.70;;
75035;SDS011;64247;51.540;5.854;2023-07-31T07:20:23;7.55;;;4.32;;
75035;SDS011;64247;51.540;5.854;2023-07-31T07:22:24;5.93;;;4.15;;
75035;SDS011;64247;51.540;5.854;2023-07-31T07:24:26;6.57;;;4.28;;
75035;SDS011;64247;51.540;5.854;2023-07-31T07:26:26;5.97;;;4.05;;
75035;SDS011;64247;51.540;5.854;2023-07-31T07:28:27;8.15;;;4.70;;
75035;SDS011;64247;51.540;5.854;2023-07-31T07:30:28;7.45;;;4.60;;
75035;SDS011;64247;51.540;5.854;2023-07-31T07:32:29;4.68;;;3.13;;
75035;SDS011;64247;51.540;5.854;2023-07-31T07:34:30;5.80;;;4.18;;
75035;SDS011;64247;51.540;5.854;2023-07-31T07:36:31;5.75;;;3.35;;
75035;SDS011;64247;51.540;5.854;2023-07-31T07:38:32;4.65;;;4.10;;
75035;SDS011;64247;51.540;5.854;2023-07-31T07:40:37;5.95;;;3.22;;
75035;SDS011;64247;51.540;5.854;2023-07-31T07:42:39;4.60;;;2.47;;
75035;SDS011;64247;51.540;5.854;2023-07-31T07:44:40;4.40;;;3.78;;
75035;SDS011;64247;51.540;5.854;2023-07-31T07:46:41;7.10;;;4.10;;
75035;SDS011;64247;51.540;5.854;2023-07-31T07:48:42;4.18;;;3.17;;
75035;SDS011;64247;51.540;5.854;2023-07-31T07:50:42;5.20;;;2.67;;
75035;SDS011;64247;51.540;5.854;2023-07-31T07:52:43;6.13;;;3.25;;
75035;SDS011;64247;51.540;5.854;2023-07-31T07:54:44;4.00;;;2.70;;
75035;SDS011;64247;51.540;5.854;2023-07-31T07:56:45;4.60;;;3.28;;
75035;SDS011;64247;51.540;5.854;2023-07-31T07:58:48;5.10;;;3.72;;
75035;SDS011;64247;51.540;5.854;2023-07-31T08:00:50;5.90;;;2.80;;
75035;SDS011;64247;51.540;5.854;2023-07-31T08:02:52;4.50;;;3.40;;
75035;SDS011;64247;51.540;5.854;2023-07-31T08:04:52;4.55;;;3.40;;
75035;SDS011;64247;51.540;5.854;2023-07-31T08:06:53;5.03;;;3.90;;
75035;SDS011;64247;51.540;5.854;2023-07-31T08:08:54;3.80;;;2.97;;
75035;SDS011;64247;51.540;5.854;2023-07-31T08:10:55;3.97;;;3.28;;
75035;SDS011;64247;51.540;5.854;2023-07-31T08:12:56;3.45;;;3.00;;
75035;SDS011;64247;51.540;5.854;2023-07-31T08:14:56;4.15;;;3.75;;
75035;SDS011;64247;51.540;5.854;2023-07-31T08:16:57;2.25;;;1.95;;
75035;SDS011;64247;51.540;5.854;2023-07-31T08:18:58;5.63;;;4.35;;
75035;SDS011;64247;51.540;5.854;2023-07-31T08:20:59;4.63;;;3.05;;
75035;SDS011;64247;51.540;5.854;2023-07-31T08:23:03;6.43;;;4.13;;
75035;SDS011;64247;51.540;5.854;2023-07-31T08:25:04;11.48;;;4.60;;
75035;SDS011;64247;51.540;5.854;2023-07-31T08:27:06;5.60;;;4.45;;
75035;SDS011;64247;51.540;5.854;2023-07-31T08:29:07;8.48;;;3.08;;
75035;SDS011;64247;51.540;5.854;2023-07-31T08:31:08;9.80;;;5.60;;
75035;SDS011;64247;51.540;5.854;2023-07-31T08:33:09;5.13;;;4.28;;
75035;SDS011;64247;51.540;5.854;2023-07-31T08:35:10;6.15;;;3.63;;
75035;SDS011;64247;51.540;5.854;2023-07-31T08:37:11;9.13;;;4.53;;
75035;SDS011;64247;51.540;5.854;2023-07-31T08:39:12;4.82;;;4.07;;
75035;SDS011;64247;51.540;5.854;2023-07-31T08:41:13;7.03;;;3.63;;
75035;SDS011;64247;51.540;5.854;2023-07-31T08:43:13;7.00;;;4.78;;
75035;SDS011;64247;51.540;5.854;2023-07-31T08:45:16;7.28;;;5.72;;
75035;SDS011;64247;51.540;5.854;2023-07-31T08:47:19;6.40;;;3.05;;
75035;SDS011;64247;51.540;5.854;2023-07-31T08:49:21;5.40;;;3.75;;
75035;SDS011;64247;51.540;5.854;2023-07-31T08:51:23;6.43;;;4.03;;
75035;SDS011;64247;51.540;5.854;2023-07-31T08:53:24;7.75;;;5.35;;
75035;SDS011;64247;51.540;5.854;2023-07-31T08:55:25;6.28;;;4.00;;
75035;SDS011;64247;51.540;5.854;2023-07-31T08:57:27;9.57;;;4.72;;
75035;SDS011;64247;51.540;5.854;2023-07-31T08:59:29;5.15;;;3.30;;
75035;SDS011;64247;51.540;5.854;2023-07-31T09:01:32;6.95;;;4.70;;
75035;SDS011;64247;51.540;5.854;2023-07-31T09:03:39;5.20;;;4.60;;
75035;SDS011;64247;51.540;5.854;2023-07-31T09:05:42;7.50;;;5.05;;
75035;SDS011;64247;51.540;5.854;2023-07-31T09:07:45;6.85;;;4.43;;
75035;SDS011;64247;51.540;5.854;2023-07-31T09:09:50;4.18;;;2.90;;
75035;SDS011;64247;51.540;5.854;2023-07-31T09:11:50;6.63;;;4.07;;
75035;SDS011;64247;51.540;5.854;2023-07-31T09:13:52;5.97;;;4.07;;
75035;SDS011;64247;51.540;5.854;2023-07-31T09:15:57;8.30;;;5.75;;
75035;SDS011;64247;51.540;5.854;2023-07-31T09:18:00;6.07;;;3.85;;
75035;SDS011;64247;51.540;5.854;2023-07-31T09:20:20;8.20;;;4.38;;
75035;SDS011;64247;51.540;5.854;2023-07-31T09:24:33;7.60;;;5.03;;
75035;SDS011;64247;51.540;5.854;2023-07-31T09:26:35;5.47;;;4.10;;
75035;SDS011;64247;51.540;5.854;2023-07-31T09:28:37;6.55;;;4.82;;
75035;SDS011;64247;51.540;5.854;2023-07-31T09:30:45;9.50;;;5.22;;
75035;SDS011;64247;51.540;5.854;2023-07-31T09:33:00;8.82;;;5.60;;
75035;SDS011;64247;51.540;5.854;2023-07-31T09:35:06;4.80;;;3.25;;
75035;SDS011;64247;51.540;5.854;2023-07-31T09:37:38;7.38;;;4.70;;
75035;SDS011;64247;51.540;5.854;2023-07-31T09:39:46;14.85;;;5.00;;
75035;SDS011;64247;51.540;5.854;2023-07-31T09:41:53;10.55;;;5.95;;
75035;SDS011;64247;51.540;5.854;2023-07-31T09:43:55;7.40;;;4.32;;
75035;SDS011;64247;51.540;5.854;2023-07-31T09:45:56;6.25;;;4.50;;
75035;SDS011;64247;51.540;5.854;2023-07-31T09:47:58;7.43;;;4.63;;
75035;SDS011;64247;51.540;5.854;2023-07-31T09:49:59;6.15;;;4.10;;
75035;SDS011;64247;51.540;5.854;2023-07-31T09:52:00;8.07;;;5.15;;
75035;SDS011;64247;51.540;5.854;2023-07-31T09:54:01;7.00;;;4.60;;
75035;SDS011;64247;51.540;5.854;2023-07-31T09:56:01;7.38;;;5.00;;
75035;SDS011;64247;51.540;5.854;2023-07-31T09:58:06;6.38;;;4.18;;
75035;SDS011;64247;51.540;5.854;2023-07-31T10:00:09;5.40;;;3.90;;
75035;SDS011;64247;51.540;5.854;2023-07-31T10:02:18;6.28;;;4.32;;
75035;SDS011;64247;51.540;5.854;2023-07-31T10:04:22;6.95;;;4.80;;
75035;SDS011;64247;51.540;5.854;2023-07-31T10:06:28;6.13;;;3.63;;
75035;SDS011;64247;51.540;5.854;2023-07-31T10:08:30;6.75;;;3.58;;
75035;SDS011;64247;51.540;5.854;2023-07-31T10:10:32;6.85;;;4.22;;
75035;SDS011;64247;51.540;5.854;2023-07-31T10:12:36;6.43;;;4.35;;
75035;SDS011;64247;51.540;5.854;2023-07-31T10:14:38;4.60;;;3.88;;
75035;SDS011;64247;51.540;5.854;2023-07-31T10:16:41;7.85;;;3.53;;
75035;SDS011;64247;51.540;5.854;2023-07-31T10:18:43;5.78;;;4.25;;
75035;SDS011;64247;51.540;5.854;2023-07-31T10:20:45;3.95;;;3.25;;
75035;SDS011;64247;51.540;5.854;2023-07-31T10:22:47;4.47;;;3.13;;
75035;SDS011;64247;51.540;5.854;2023-07-31T10:24:49;4.85;;;4.35;;
75035;SDS011;64247;51.540;5.854;2023-07-31T10:26:51;7.32;;;4.70;;
75035;SDS011;64247;51.540;5.854;2023-07-31T10:28:53;6.30;;;4.18;;
75035;SDS011;64247;51.540;5.854;2023-07-31T10:30:54;6.78;;;3.97;;
75035;SDS011;64247;51.540;5.854;2023-07-31T10:32:56;6.03;;;4.18;;
75035;SDS011;64247;51.540;5.854;2023-07-31T10:34:58;6.60;;;3.88;;
75035;SDS011;64247;51.540;5.854;2023-07-31T10:41:55;4.82;;;3.63;;
75035;SDS011;64247;51.540;5.854;2023-07-31T10:44:02;5.55;;;3.33;;
75035;SDS011;64247;51.540;5.854;2023-07-31T10:48:15;5.57;;;3.60;;
75035;SDS011;64247;51.540;5.854;2023-07-31T10:50:17;4.82;;;3.90;;
75035;SDS011;64247;51.540;5.854;2023-07-31T10:52:38;5.10;;;3.97;;
75035;SDS011;64247;51.540;5.854;2023-07-31T10:54:39;5.55;;;3.40;;
75035;SDS011;64247;51.540;5.854;2023-07-31T10:56:40;3.38;;;2.88;;
75035;SDS011;64247;51.540;5.854;2023-07-31T10:58:45;4.75;;;3.65;;
75035;SDS011;64247;51.540;5.854;2023-07-31T11:00:48;3.33;;;3.00;;
75035;SDS011;64247;51.540;5.854;2023-07-31T11:05:16;5.82;;;2.38;;
75035;SDS011;64247;51.540;5.854;2023-07-31T11:07:17;5.88;;;3.88;;
75035;SDS011;64247;51.540;5.854;2023-07-31T11:09:18;6.88;;;4.00;;
75035;SDS011;64247;51.540;5.854;2023-07-31T11:11:19;5.18;;;3.38;;
75035;SDS011;64247;51.540;5.854;2023-07-31T11:13:21;7.43;;;3.90;;
75035;SDS011;64247;51.540;5.854;2023-07-31T11:15:22;4.35;;;2.75;;
75035;SDS011;64247;51.540;5.854;2023-07-31T11:17:24;7.22;;;5.00;;
75035;SDS011;64247;51.540;5.854;2023-07-31T11:19:26;6.47;;;2.95;;
75035;SDS011;64247;51.540;5.854;2023-07-31T11:21:27;3.30;;;2.65;;
75035;SDS011;64247;51.540;5.854;2023-07-31T11:23:28;2.65;;;2.45;;
75035;SDS011;64247;51.540;5.854;2023-07-31T11:25:31;5.20;;;3.03;;
75035;SDS011;64247;51.540;5.854;2023-07-31T11:27:38;3.33;;;3.03;;
75035;SDS011;64247;51.540;5.854;2023-07-31T11:29:40;5.75;;;3.30;;
75035;SDS011;64247;51.540;5.854;2023-07-31T11:31:42;8.55;;;3.80;;
75035;SDS011;64247;51.540;5.854;2023-07-31T11:33:43;3.63;;;2.00;;
75035;SDS011;64247;51.540;5.854;2023-07-31T11:35:45;3.15;;;2.85;;
75035;SDS011;64247;51.540;5.854;2023-07-31T11:37:48;5.63;;;3.88;;
75035;SDS011;64247;51.540;5.854;2023-07-31T11:42:09;4.65;;;2.42;;
75035;SDS011;64247;51.540;5.854;2023-07-31T11:44:10;3.80;;;2.97;;
75035;SDS011;64247;51.540;5.854;2023-07-31T11:46:11;4.68;;;3.03;;
75035;SDS011;64247;51.540;5.854;2023-07-31T11:48:18;5.03;;;3.45;;
75035;SDS011;64247;51.540;5.854;2023-07-31T11:50:27;4.40;;;2.95;;
75035;SDS011;64247;51.540;5.854;2023-07-31T11:52:28;3.67;;;2.80;;
75035;SDS011;64247;51.540;5.854;2023-07-31T11:54:32;5.20;;;3.03;;
75035;SDS011;64247;51.540;5.854;2023-07-31T11:56:33;4.18;;;3.13;;
75035;SDS011;64247;51.540;5.854;2023-07-31T11:58:34;5.82;;;3.13;;
75035;SDS011;64247;51.540;5.854;2023-07-31T12:00:36;6.25;;;3.33;;
75035;SDS011;64247;51.540;5.854;2023-07-31T12:02:37;7.07;;;3.08;;
75035;SDS011;64247;51.540;5.854;2023-07-31T12:04:40;4.50;;;3.92;;
75035;SDS011;64247;51.540;5.854;2023-07-31T12:06:41;4.57;;;3.10;;
75035;SDS011;64247;51.540;5.854;2023-07-31T12:08:41;5.03;;;2.38;;
75035;SDS011;64247;51.540;5.854;2023-07-31T12:10:42;2.83;;;2.20;;
75035;SDS011;64247;51.540;5.854;2023-07-31T12:12:44;3.97;;;2.20;;
75035;SDS011;64247;51.540;5.854;2023-07-31T12:14:56;4.53;;;3.28;;
75035;SDS011;64247;51.540;5.854;2023-07-31T12:16:58;4.75;;;3.00;;
75035;SDS011;64247;51.540;5.854;2023-07-31T12:19:00;5.80;;;3.45;;
75035;SDS011;64247;51.540;5.854;2023-07-31T12:21:02;3.42;;;2.30;;
75035;SDS011;64247;51.540;5.854;2023-07-31T12:23:04;4.13;;;2.50;;
75035;SDS011;64247;51.540;5.854;2023-07-31T12:25:05;3.70;;;3.08;;
75035;SDS011;64247;51.540;5.854;2023-07-31T12:27:13;3.92;;;2.42;;
75035;SDS011;64247;51.540;5.854;2023-07-31T12:29:15;5.85;;;2.90;;
75035;SDS011;64247;51.540;5.854;2023-07-31T12:31:17;4.20;;;3.08;;
75035;SDS011;64247;51.540;5.854;2023-07-31T12:33:19;5.80;;;3.78;;